ETD421 OMAA-VTCC
Flight info
| Callsign | ETD421 |
|---|---|
| Flight time | N/A |
| Altitude | 35000 |
| Route | KANIP4K KANIP N318 LAKLU G216 ALPOR M504 TELEM A791 CEA |
| Aircraft | B77W/H-V/N |
Departure
| Time | N/A |
|---|---|
| Airport | Zayed International Airport (OMAA) |
Arrival
| Time | 2026-04-29 19:50 |
|---|---|
| Airport | Chiang Mai International Airport (VTCC) |
| Time | Latitude | Longitude | Altitude | Speed | Heading |
|---|---|---|---|---|---|
| 2026-04-29 19:20 | 20.72535 | 97.22400 | 36967 ft | 501 kts | 142° |
| 2026-04-29 19:21 | 20.67188 | 97.27184 | 36967 ft | 501 kts | 142° |
| 2026-04-29 19:21 | 20.61866 | 97.31942 | 36966 ft | 501 kts | 142° |
| 2026-04-29 19:22 | 20.57418 | 97.35915 | 36968 ft | 502 kts | 142° |
| 2026-04-29 19:22 | 20.52050 | 97.40707 | 36971 ft | 501 kts | 142° |
| 2026-04-29 19:23 | 20.46692 | 97.45483 | 36970 ft | 502 kts | 142° |
| 2026-04-29 19:23 | 20.41323 | 97.50267 | 36960 ft | 502 kts | 142° |
| 2026-04-29 19:24 | 20.35985 | 97.55018 | 36961 ft | 502 kts | 142° |
| 2026-04-29 19:24 | 20.30595 | 97.59812 | 36959 ft | 503 kts | 143° |
| 2026-04-29 19:25 | 20.25221 | 97.64585 | 36947 ft | 503 kts | 143° |
| 2026-04-29 19:25 | 20.19870 | 97.69331 | 36946 ft | 503 kts | 143° |
| 2026-04-29 19:26 | 20.14483 | 97.74110 | 36941 ft | 503 kts | 143° |
| 2026-04-29 19:26 | 20.09094 | 97.78885 | 36935 ft | 504 kts | 143° |
| 2026-04-29 19:27 | 20.03709 | 97.83651 | 36935 ft | 504 kts | 143° |
| 2026-04-29 19:27 | 19.98341 | 97.88397 | 36946 ft | 504 kts | 143° |
| 2026-04-29 19:28 | 19.92938 | 97.93172 | 36936 ft | 505 kts | 143° |
| 2026-04-29 19:28 | 19.87531 | 97.97945 | 36947 ft | 504 kts | 143° |
| 2026-04-29 19:29 | 19.82167 | 98.02676 | 36952 ft | 504 kts | 143° |
| 2026-04-29 19:29 | 19.78902 | 98.05557 | 36951 ft | 504 kts | 143° |
| 2026-04-29 19:30 | 19.74106 | 98.09825 | 36949 ft | 504 kts | 143° |
| 2026-04-29 19:30 | 19.68746 | 98.14614 | 36956 ft | 503 kts | 143° |
| 2026-04-29 19:31 | 19.63380 | 98.19398 | 36275 ft | 513 kts | 143° |
| 2026-04-29 19:31 | 19.60630 | 98.21845 | 35554 ft | 513 kts | 143° |
| 2026-04-29 19:31 | 19.57891 | 98.24282 | 34705 ft | 514 kts | 143° |
| 2026-04-29 19:31 | 19.55138 | 98.26731 | 33777 ft | 516 kts | 143° |
| 2026-04-29 19:32 | 19.52383 | 98.29180 | 32747 ft | 518 kts | 143° |
| 2026-04-29 19:32 | 19.49626 | 98.31632 | 31732 ft | 512 kts | 143° |
| 2026-04-29 19:32 | 19.46930 | 98.34030 | 30737 ft | 503 kts | 143° |
| 2026-04-29 19:32 | 19.44285 | 98.36382 | 30077 ft | 488 kts | 143° |
| 2026-04-29 19:33 | 19.41684 | 98.38692 | 29304 ft | 488 kts | 143° |
| 2026-04-29 19:33 | 19.39073 | 98.41005 | 28614 ft | 490 kts | 143° |
| 2026-04-29 19:33 | 19.36442 | 98.43333 | 27935 ft | 493 kts | 143° |
| 2026-04-29 19:33 | 19.33807 | 98.45667 | 27281 ft | 492 kts | 143° |
| 2026-04-29 19:34 | 19.31201 | 98.47977 | 26625 ft | 488 kts | 143° |
| 2026-04-29 19:34 | 19.28602 | 98.50280 | 25971 ft | 484 kts | 144° |
| 2026-04-29 19:34 | 19.26029 | 98.52560 | 25319 ft | 480 kts | 144° |
| 2026-04-29 19:34 | 19.23506 | 98.54791 | 24679 ft | 475 kts | 144° |
| 2026-04-29 19:35 | 19.21013 | 98.57000 | 24029 ft | 459 kts | 144° |
| 2026-04-29 19:35 | 19.18599 | 98.59141 | 23390 ft | 450 kts | 144° |
| 2026-04-29 19:35 | 19.16201 | 98.61262 | 22710 ft | 448 kts | 144° |
| 2026-04-29 19:35 | 19.13813 | 98.63374 | 22071 ft | 446 kts | 144° |
| 2026-04-29 19:36 | 19.11439 | 98.65476 | 21448 ft | 443 kts | 144° |
| 2026-04-29 19:36 | 19.09073 | 98.67547 | 20859 ft | 439 kts | 147° |
| 2026-04-29 19:36 | 19.06507 | 98.69207 | 20249 ft | 428 kts | 160° |
| 2026-04-29 19:36 | 19.03795 | 98.70452 | 19670 ft | 423 kts | 162° |
| 2026-04-29 19:37 | 19.01071 | 98.71640 | 19053 ft | 422 kts | 162° |
| 2026-04-29 19:37 | 18.99281 | 98.72431 | 18650 ft | 422 kts | 162° |
| 2026-04-29 19:37 | 18.95701 | 98.74061 | 17794 ft | 422 kts | 161° |
| 2026-04-29 19:37 | 18.93020 | 98.75315 | 17137 ft | 420 kts | 160° |
| 2026-04-29 19:38 | 18.90361 | 98.76576 | 16537 ft | 417 kts | 160° |
| 2026-04-29 19:38 | 18.87722 | 98.77829 | 15935 ft | 415 kts | 159° |
| 2026-04-29 19:38 | 18.85091 | 98.79074 | 15333 ft | 413 kts | 159° |
| 2026-04-29 19:38 | 18.82468 | 98.80314 | 14743 ft | 412 kts | 159° |
| 2026-04-29 19:39 | 18.79849 | 98.81550 | 14144 ft | 411 kts | 159° |
| 2026-04-29 19:39 | 18.77249 | 98.82779 | 13509 ft | 406 kts | 158° |
| 2026-04-29 19:39 | 18.74694 | 98.83855 | 12874 ft | 385 kts | 168° |
| 2026-04-29 19:39 | 18.72114 | 98.84107 | 12474 ft | 365 kts | 184° |
| 2026-04-29 19:40 | 18.69597 | 98.84025 | 12192 ft | 353 kts | 184° |
| 2026-04-29 19:40 | 18.67200 | 98.83992 | 11832 ft | 339 kts | 183° |
| 2026-04-29 19:40 | 18.64883 | 98.83977 | 11463 ft | 336 kts | 182° |
| 2026-04-29 19:40 | 18.62545 | 98.83968 | 11102 ft | 333 kts | 182° |
| 2026-04-29 19:41 | 18.60233 | 98.83963 | 10739 ft | 331 kts | 182° |
| 2026-04-29 19:41 | 18.57941 | 98.83958 | 10359 ft | 328 kts | 182° |
| 2026-04-29 19:41 | 18.55671 | 98.83954 | 10009 ft | 322 kts | 182° |
| 2026-04-29 19:41 | 18.53529 | 98.83952 | 9788 ft | 294 kts | 182° |
| 2026-04-29 19:42 | 18.51547 | 98.83950 | 9371 ft | 277 kts | 182° |
| 2026-04-29 19:42 | 18.50274 | 98.83947 | 9179 ft | 276 kts | 182° |
| 2026-04-29 19:42 | 18.47710 | 98.83941 | 8746 ft | 274 kts | 182° |
| 2026-04-29 19:42 | 18.45842 | 98.84087 | 8445 ft | 269 kts | 163° |
| 2026-04-29 19:43 | 18.44287 | 98.85103 | 8247 ft | 265 kts | 135° |
| 2026-04-29 19:43 | 18.43305 | 98.86749 | 7887 ft | 268 kts | 110° |
| 2026-04-29 19:43 | 18.42905 | 98.88623 | 7621 ft | 265 kts | 95° |
| 2026-04-29 19:43 | 18.42914 | 98.90572 | 7229 ft | 267 kts | 88° |
| 2026-04-29 19:44 | 18.42963 | 98.92512 | 6980 ft | 262 kts | 87° |
| 2026-04-29 19:44 | 18.43423 | 98.94340 | 6697 ft | 257 kts | 57° |
| 2026-04-29 19:44 | 18.44660 | 98.95637 | 6426 ft | 252 kts | 28° |
| 2026-04-29 19:44 | 18.46294 | 98.96206 | 6177 ft | 246 kts | 6° |
| 2026-04-29 19:45 | 18.47998 | 98.96274 | 5848 ft | 245 kts | 358° |
| 2026-04-29 19:45 | 18.49691 | 98.96240 | 5526 ft | 244 kts | 358° |
| 2026-04-29 19:45 | 18.51394 | 98.96210 | 5260 ft | 242 kts | 359° |
| 2026-04-29 19:45 | 18.53071 | 98.96222 | 5020 ft | 239 kts | 360° |
| 2026-04-29 19:46 | 18.54731 | 98.96236 | 4745 ft | 238 kts | 359° |
| 2026-04-29 19:46 | 18.56383 | 98.96241 | 4495 ft | 234 kts | 359° |
| 2026-04-29 19:46 | 18.58011 | 98.96237 | 4220 ft | 232 kts | 359° |
| 2026-04-29 19:46 | 18.59613 | 98.96246 | 3980 ft | 229 kts | 359° |
| 2026-04-29 19:47 | 18.61203 | 98.96249 | 3707 ft | 226 kts | 359° |
| 2026-04-29 19:47 | 18.62714 | 98.96252 | 3477 ft | 208 kts | 360° |
| 2026-04-29 19:47 | 18.64121 | 98.96272 | 3091 ft | 198 kts | 360° |
| 2026-04-29 19:47 | 18.65439 | 98.96270 | 2869 ft | 181 kts | 359° |
| 2026-04-29 19:48 | 18.66628 | 98.96262 | 2658 ft | 161 kts | 359° |
| 2026-04-29 19:48 | 18.67339 | 98.96262 | 2550 ft | 148 kts | 360° |
| 2026-04-29 19:48 | 18.68722 | 98.96271 | 2338 ft | 153 kts | 360° |
| 2026-04-29 19:48 | 18.69783 | 98.96269 | 2111 ft | 151 kts | 0° |
| 2026-04-29 19:49 | 18.70830 | 98.96275 | 1866 ft | 149 kts | 1° |
| 2026-04-29 19:49 | 18.71858 | 98.96281 | 1691 ft | 146 kts | 0° |
| 2026-04-29 19:49 | 18.72889 | 98.96276 | 1515 ft | 149 kts | 0° |
| 2026-04-29 19:49 | 18.73923 | 98.96283 | 1333 ft | 149 kts | 0° |
| 2026-04-29 19:50 | 18.74950 | 98.96284 | 1134 ft | 146 kts | 359° |
| 2026-04-29 19:50 | 18.75955 | 98.96283 | 1029 ft | 138 kts | 359° |
| 2026-04-29 19:50 | 18.76775 | 98.96288 | 1035 ft | 93 kts | 0° |
| 2026-04-29 19:50 | 18.77242 | 98.96289 | 1040 ft | 36 kts | 360° |
| 2026-04-29 19:51 | 18.77399 | 98.96294 | 1042 ft | 22 kts | 7° |
| 2026-04-29 19:51 | 18.77543 | 98.96347 | 1045 ft | 22 kts | 26° |
| 2026-04-29 19:51 | 18.77653 | 98.96413 | 1045 ft | 14 kts | 32° |
| 2026-04-29 19:51 | 18.77700 | 98.96492 | 1046 ft | 13 kts | 98° |
| 2026-04-29 19:52 | 18.77670 | 98.96514 | 1046 ft | 6 kts | 159° |
| 2026-04-29 19:52 | 18.77626 | 98.96522 | 1045 ft | 3 kts | 182° |
| 2026-04-29 19:52 | 18.77582 | 98.96520 | 1045 ft | 10 kts | 182° |
| 2026-04-29 19:52 | 18.77502 | 98.96518 | 1044 ft | 12 kts | 180° |
| 2026-04-29 19:53 | 18.77394 | 98.96518 | 1043 ft | 19 kts | 180° |
| 2026-04-29 19:53 | 18.77242 | 98.96518 | 1041 ft | 23 kts | 180° |
| 2026-04-29 19:53 | 18.77132 | 98.96545 | 1040 ft | 16 kts | 137° |
| 2026-04-29 19:53 | 18.77070 | 98.96608 | 1039 ft | 8 kts | 151° |
| 2026-04-29 19:54 | 18.76971 | 98.96665 | 1038 ft | 3 kts | 95° |
| 2026-04-29 19:54 | 18.76981 | 98.96690 | 1039 ft | 4 kts | 80° |
| 2026-04-29 19:54 | 18.76981 | 98.96721 | 1039 ft | 0 kts | 92° |